createdAt,value
2022-12-03T00:00:34.996Z,96.04
2022-12-03T00:03:02.927Z,95.39
2022-12-03T00:05:34.759Z,94.53
2022-12-03T00:08:04.499Z,94.44
2022-12-03T00:10:32.440Z,94.48
2022-12-03T00:13:00.549Z,94.46
2022-12-03T00:15:28.542Z,94.42
2022-12-03T00:17:56.388Z,94.28
2022-12-03T00:20:25.702Z,94.73
2022-12-03T00:22:54.862Z,94.33
2022-12-03T00:25:25.017Z,94.77
2022-12-03T00:27:52.899Z,93.75
2022-12-03T00:30:20.742Z,93.69
2022-12-03T00:32:48.510Z,93.82
2022-12-03T00:35:16.790Z,93.34
2022-12-03T00:37:44.566Z,92.99
2022-12-03T00:40:14.387Z,92.08
2022-12-03T00:42:42.355Z,91.62
2022-12-03T00:45:11.086Z,92.54
2022-12-03T00:47:38.832Z,92.51
2022-12-03T00:50:08.313Z,91.69
2022-12-03T00:52:36.179Z,91.82
2022-12-03T00:55:04.244Z,92.26
2022-12-03T00:57:33.456Z,93.29
2022-12-03T01:00:01.313Z,95.02
2022-12-03T01:02:31.439Z,95.81
2022-12-03T01:04:59.425Z,96.11
2022-12-03T01:07:27.400Z,96.08
2022-12-03T01:09:57.474Z,96.71
2022-12-03T01:12:25.320Z,97.32
2022-12-03T01:14:54.690Z,97.54
2022-12-03T01:17:22.840Z,99.29
2022-12-03T01:19:52.511Z,100.00
2022-12-03T01:22:20.262Z,98.88
2022-12-03T01:24:48.039Z,99.49
2022-12-03T01:27:15.814Z,99.45
2022-12-03T01:29:43.696Z,99.89
2022-12-03T01:32:19.105Z,100.00
2022-12-03T01:34:47.547Z,100.00
2022-12-03T01:37:15.805Z,100.00
2022-12-03T01:39:44.377Z,100.00
2022-12-03T01:42:17.141Z,100.00
2022-12-03T01:44:45.914Z,99.90
2022-12-03T01:47:19.838Z,100.00
2022-12-03T01:49:51.905Z,100.00
2022-12-03T01:52:22.580Z,100.00
2022-12-03T01:54:53.811Z,99.90
2022-12-03T01:57:24.308Z,99.04
2022-12-03T01:59:53.805Z,99.17
2022-12-03T02:02:25.380Z,99.38
2022-12-03T02:04:54.433Z,99.00
2022-12-03T02:07:26.208Z,98.30
2022-12-03T02:09:55.770Z,98.20
2022-12-03T02:12:31.296Z,98.38
2022-12-03T02:15:00.354Z,97.99
2022-12-03T02:17:30.102Z,97.69
2022-12-03T02:19:59.487Z,97.68
2022-12-03T02:22:39.095Z,97.65
2022-12-03T02:25:12.651Z,97.90
2022-12-03T02:27:41.235Z,97.92
2022-12-03T02:30:10.933Z,96.84
2022-12-03T02:32:39.205Z,97.78
2022-12-03T02:35:07.648Z,97.84
2022-12-03T02:37:38.548Z,96.79
2022-12-03T02:40:14.057Z,96.60
2022-12-03T02:42:43.292Z,95.91
2022-12-03T02:45:15.075Z,95.99
2022-12-03T02:47:46.169Z,95.66
2022-12-03T02:50:18.050Z,95.04
2022-12-03T02:52:47.913Z,94.32
2022-12-03T02:55:18.833Z,94.10
2022-12-03T02:57:49.506Z,93.92
2022-12-03T03:00:18.666Z,93.66
2022-12-03T03:02:47.656Z,94.09
2022-12-03T03:05:17.005Z,94.01
2022-12-03T03:07:47.438Z,94.46
2022-12-03T03:10:24.156Z,93.67
2022-12-03T03:12:55.218Z,93.95
2022-12-03T03:15:24.464Z,92.96
2022-12-03T03:17:52.754Z,93.19
2022-12-03T03:20:20.756Z,93.57
2022-12-03T03:22:48.553Z,94.04
2022-12-03T03:25:22.483Z,94.26
2022-12-03T03:27:50.477Z,94.75
2022-12-03T03:30:18.581Z,94.99
2022-12-03T03:32:46.660Z,94.37
2022-12-03T03:35:18.039Z,95.40
2022-12-03T03:37:45.949Z,95.07
2022-12-03T03:40:14.086Z,95.87
2022-12-03T03:42:43.338Z,96.22
2022-12-03T03:45:11.653Z,95.69
2022-12-03T03:47:39.798Z,96.81
2022-12-03T03:50:10.200Z,99.01
2022-12-03T03:52:39.249Z,100.00
2022-12-03T03:55:11.866Z,99.74
2022-12-03T03:57:44.156Z,99.63
2022-12-03T04:00:13.122Z,100.00
2022-12-03T04:02:42.589Z,99.89
2022-12-03T04:05:16.424Z,100.00
2022-12-03T04:07:46.726Z,99.13
2022-12-03T04:10:33.092Z,99.57
2022-12-03T04:13:02.990Z,100.00
2022-12-03T04:15:30.952Z,98.90
2022-12-03T04:18:16.414Z,99.55
2022-12-03T04:20:46.583Z,99.71
2022-12-03T04:23:13.616Z,99.30
2022-12-03T04:25:58.003Z,99.09
2022-12-03T04:28:44.916Z,98.92
2022-12-03T04:31:29.944Z,97.79
2022-12-03T04:34:15.257Z,98.59
2022-12-03T04:36:42.986Z,99.68
2022-12-03T04:39:10.708Z,99.58
2022-12-03T04:41:38.924Z,98.52
2022-12-03T04:44:25.987Z,98.99
2022-12-03T04:46:53.869Z,97.50
2022-12-03T04:49:22.610Z,97.20
2022-12-03T04:51:50.408Z,98.66
2022-12-03T04:54:18.894Z,98.55
2022-12-03T04:56:46.934Z,99.22
2022-12-03T04:59:16.757Z,98.51
2022-12-03T05:01:44.911Z,97.75
2022-12-03T05:04:13.304Z,98.34
2022-12-03T05:06:41.327Z,99.48
2022-12-03T05:09:09.409Z,100.00
2022-12-03T05:11:37.275Z,100.00
2022-12-03T05:14:05.340Z,100.00
2022-12-03T05:16:34.653Z,100.00
2022-12-03T05:19:02.571Z,100.00
2022-12-03T05:21:29.614Z,100.00
2022-12-03T05:23:57.513Z,100.00
2022-12-03T05:26:25.380Z,100.00
2022-12-03T05:28:53.227Z,99.73
2022-12-03T05:31:21.073Z,100.00
2022-12-03T05:33:50.239Z,99.69
2022-12-03T05:36:18.208Z,98.95
2022-12-03T05:38:46.049Z,99.13
2022-12-03T05:41:31.312Z,100.00
2022-12-03T05:43:59.163Z,99.38
2022-12-03T05:46:27.013Z,100.00
2022-12-03T05:48:57.454Z,100.00
2022-12-03T05:51:25.159Z,99.40
2022-12-03T05:53:52.977Z,99.28
2022-12-03T05:56:20.877Z,98.75
2022-12-03T05:58:48.720Z,97.42
2022-12-03T06:01:16.649Z,97.67
2022-12-03T06:03:44.578Z,96.69
2022-12-03T06:06:16.250Z,96.41
2022-12-03T06:08:44.148Z,95.90
2022-12-03T06:11:11.980Z,95.20
2022-12-03T06:13:39.810Z,94.86
2022-12-03T06:16:07.848Z,94.97
2022-12-03T06:18:35.731Z,95.02
2022-12-03T06:21:04.927Z,94.80
2022-12-03T06:23:34.148Z,96.04
2022-12-03T06:26:01.922Z,95.58
2022-12-03T06:28:29.856Z,94.83
2022-12-03T06:31:00.592Z,95.13
2022-12-03T06:33:28.414Z,94.51
2022-12-03T06:35:56.352Z,93.61
2022-12-03T06:38:24.146Z,95.96
2022-12-03T06:40:53.269Z,95.47
2022-12-03T06:43:21.054Z,96.59
2022-12-03T06:45:48.859Z,95.86
2022-12-03T06:48:18.723Z,95.55
2022-12-03T06:50:46.694Z,94.69
2022-12-03T06:53:14.571Z,94.51
2022-12-03T06:55:42.473Z,94.08
2022-12-03T06:58:11.707Z,94.33
2022-12-03T07:00:39.759Z,93.77
2022-12-03T07:03:07.624Z,92.59
2022-12-03T07:05:35.459Z,95.53
2022-12-03T07:08:03.618Z,97.02
2022-12-03T07:10:31.498Z,95.86
2022-12-03T07:12:59.495Z,96.20
2022-12-03T07:15:28.837Z,97.00
2022-12-03T07:17:56.703Z,96.32
2022-12-03T07:20:24.439Z,97.49
2022-12-03T07:22:52.237Z,99.10
2022-12-03T07:25:23.477Z,98.94
2022-12-03T07:27:51.962Z,100.00
2022-12-03T07:30:20.050Z,100.00
2022-12-03T07:32:49.197Z,99.41
2022-12-03T07:35:17.328Z,98.61
2022-12-03T07:37:47.159Z,97.22
2022-12-03T07:40:17.349Z,97.43
2022-12-03T07:42:45.174Z,97.21
2022-12-03T07:45:13.063Z,97.31
2022-12-03T07:47:40.857Z,99.82
2022-12-03T07:50:11.467Z,100.00
2022-12-03T07:52:39.333Z,100.00
2022-12-03T07:55:08.255Z,100.00
2022-12-03T07:57:36.059Z,100.00
2022-12-03T08:00:07.744Z,100.00
2022-12-03T08:02:38.130Z,100.00
2022-12-03T08:05:07.076Z,100.00
2022-12-03T08:07:36.230Z,100.00
2022-12-03T08:10:05.161Z,100.00
2022-12-03T08:12:40.941Z,100.00
2022-12-03T08:15:14.454Z,100.00
2022-12-03T08:17:43.305Z,100.00
2022-12-03T08:20:15.815Z,100.00
2022-12-03T08:22:46.917Z,100.00
2022-12-03T08:25:19.094Z,100.00
2022-12-03T08:27:49.442Z,100.00
2022-12-03T08:30:18.953Z,100.00
2022-12-03T08:32:48.608Z,100.00
2022-12-03T08:35:23.698Z,100.00
2022-12-03T08:38:00.201Z,100.00
2022-12-03T08:40:35.626Z,98.86
2022-12-03T08:43:13.821Z,97.59
2022-12-03T08:45:43.164Z,97.94
2022-12-03T08:48:28.770Z,97.70
2022-12-03T08:50:58.981Z,99.03
2022-12-03T08:53:31.104Z,98.74
2022-12-03T08:56:00.658Z,98.48
2022-12-03T08:58:35.380Z,98.56
2022-12-03T09:01:18.875Z,98.65
2022-12-03T09:03:51.449Z,98.05
2022-12-03T09:06:22.725Z,96.25
2022-12-03T09:08:51.980Z,95.00
2022-12-03T09:11:23.012Z,93.50
2022-12-03T09:13:51.019Z,94.59
2022-12-03T09:16:21.163Z,93.67
2022-12-03T09:18:48.978Z,91.58
2022-12-03T09:21:16.734Z,91.33
2022-12-03T09:23:44.552Z,90.39
2022-12-03T09:26:13.701Z,89.96
2022-12-03T09:28:41.908Z,90.48
2022-12-03T09:31:09.780Z,88.89
2022-12-03T09:33:37.563Z,88.27
2022-12-03T09:36:06.543Z,89.50
2022-12-03T09:38:34.917Z,89.75
2022-12-03T09:41:02.900Z,89.20
2022-12-03T09:44:02.637Z,88.48
2022-12-03T09:46:22.674Z,87.99
2022-12-03T09:48:51.025Z,88.85
2022-12-03T09:51:20.732Z,88.71
2022-12-03T09:53:48.962Z,89.06
2022-12-03T09:56:21.555Z,88.21
2022-12-03T09:58:51.450Z,86.94
2022-12-03T10:01:22.464Z,90.10
2022-12-03T10:03:52.609Z,88.32
2022-12-03T10:06:24.689Z,85.79
2022-12-03T10:08:55.668Z,85.44
2022-12-03T10:11:27.211Z,86.09
2022-12-03T10:13:58.602Z,86.30
2022-12-03T10:16:28.876Z,85.14
2022-12-03T10:19:00.195Z,84.57
2022-12-03T10:21:32.159Z,86.09
2022-12-03T10:24:20.263Z,86.23
2022-12-03T10:26:49.902Z,84.61
2022-12-03T10:29:22.661Z,86.95
2022-12-03T10:31:56.878Z,85.79
2022-12-03T10:34:26.264Z,86.42
2022-12-03T10:37:11.882Z,85.38
2022-12-03T10:39:56.354Z,84.72
2022-12-03T10:42:25.970Z,85.50
2022-12-03T10:45:14.321Z,84.55
2022-12-03T10:47:42.430Z,83.45
2022-12-03T10:50:18.840Z,83.19
2022-12-03T10:52:48.002Z,82.98
2022-12-03T10:55:16.899Z,82.88
2022-12-03T10:57:47.034Z,84.77
2022-12-03T11:00:19.491Z,84.66
2022-12-03T11:02:53.301Z,83.40
2022-12-03T11:05:28.348Z,84.74
2022-12-03T11:07:57.232Z,84.03
2022-12-03T11:10:25.321Z,83.94
2022-12-03T11:13:43.346Z,83.38
2022-12-03T11:16:14.043Z,83.58
2022-12-03T11:19:02.452Z,83.11
2022-12-03T11:21:31.381Z,84.70
2022-12-03T11:24:18.288Z,84.22
2022-12-03T11:27:09.411Z,84.76
2022-12-03T11:29:55.314Z,85.68
2022-12-03T11:33:04.756Z,86.41
2022-12-03T11:35:59.015Z,87.03
2022-12-03T11:38:57.596Z,86.91
2022-12-03T11:41:31.763Z,86.86
2022-12-03T11:44:21.916Z,86.11
2022-12-03T11:46:50.678Z,84.04
2022-12-03T11:49:35.780Z,84.09
2022-12-03T11:52:22.460Z,84.10
2022-12-03T11:54:53.616Z,83.46
2022-12-03T11:57:31.624Z,83.16
2022-12-03T12:00:08.329Z,84.54
2022-12-03T12:02:42.778Z,85.59
2022-12-03T12:05:23.697Z,83.99
2022-12-03T12:07:53.628Z,85.11
2022-12-03T12:10:42.883Z,84.21
2022-12-03T12:13:48.323Z,84.55
2022-12-03T12:16:38.878Z,84.68
2022-12-03T12:19:29.459Z,83.68
2022-12-03T12:22:12.974Z,83.86
2022-12-03T12:24:48.246Z,84.47
2022-12-03T12:27:18.514Z,86.82
2022-12-03T12:29:55.079Z,86.95
2022-12-03T12:32:29.205Z,85.69
2022-12-03T12:35:01.250Z,85.50
2022-12-03T12:37:34.866Z,83.14
2022-12-03T12:40:07.329Z,82.92
2022-12-03T12:42:36.829Z,82.81
2022-12-03T12:45:15.365Z,82.95
2022-12-03T12:47:50.376Z,81.81
2022-12-03T12:50:19.802Z,82.76
2022-12-03T12:52:54.516Z,83.15
2022-12-03T12:55:24.209Z,82.65
2022-12-03T12:57:52.629Z,82.60
2022-12-03T13:00:22.946Z,83.57
2022-12-03T13:02:56.184Z,83.79
2022-12-03T13:05:27.639Z,83.82
2022-12-03T13:07:56.032Z,85.11
2022-12-03T13:10:42.538Z,83.93
2022-12-03T13:13:21.580Z,84.79
2022-12-03T13:16:00.773Z,85.12
2022-12-03T13:18:33.627Z,83.17
2022-12-03T13:21:12.452Z,85.10
2022-12-03T13:23:41.156Z,83.24
2022-12-03T13:26:34.107Z,81.99
2022-12-03T13:29:14.430Z,82.68
2022-12-03T13:31:47.933Z,82.36
2022-12-03T13:34:21.632Z,82.75
2022-12-03T13:36:57.478Z,83.70
2022-12-03T13:39:30.491Z,85.26
2022-12-03T13:42:17.651Z,84.78
2022-12-03T13:44:47.995Z,83.91
2022-12-03T13:47:19.537Z,84.12
2022-12-03T13:49:54.561Z,84.78
2022-12-03T13:52:24.870Z,84.49
2022-12-03T13:54:54.959Z,84.30
2022-12-03T13:57:23.351Z,84.71
2022-12-03T13:59:51.526Z,84.20
2022-12-03T14:02:19.732Z,82.98
2022-12-03T14:04:47.642Z,83.52
2022-12-03T14:07:17.462Z,82.93
2022-12-03T14:09:45.226Z,85.08
2022-12-03T14:12:30.691Z,84.14
2022-12-03T14:14:58.527Z,84.14
2022-12-03T14:17:26.335Z,85.91
2022-12-03T14:19:54.540Z,84.55
2022-12-03T14:22:25.369Z,83.21
2022-12-03T14:24:55.728Z,83.83
2022-12-03T14:27:25.281Z,83.54
2022-12-03T14:29:53.471Z,84.75
2022-12-03T14:32:21.619Z,84.37
2022-12-03T14:34:49.601Z,83.36
2022-12-03T14:37:19.954Z,84.79
2022-12-03T14:39:51.131Z,85.88
2022-12-03T14:42:19.044Z,85.74
2022-12-03T14:44:48.875Z,86.96
2022-12-03T14:47:18.512Z,87.08
2022-12-03T14:49:46.518Z,86.28
2022-12-03T14:52:14.396Z,86.73
2022-12-03T14:54:44.502Z,85.32
2022-12-03T14:57:15.285Z,87.30
2022-12-03T14:59:44.011Z,88.13
2022-12-03T15:02:13.209Z,86.47
2022-12-03T15:04:41.903Z,86.35
2022-12-03T15:07:12.018Z,85.51
2022-12-03T15:09:40.088Z,85.20
2022-12-03T15:12:08.595Z,85.04
2022-12-03T15:14:37.725Z,84.48
2022-12-03T15:17:05.657Z,85.17
2022-12-03T15:19:33.711Z,87.66
2022-12-03T15:22:01.552Z,87.08
2022-12-03T15:24:29.346Z,87.50
2022-12-03T15:26:57.168Z,86.70
2022-12-03T15:29:24.967Z,85.01
2022-12-03T15:31:54.568Z,83.75
2022-12-03T15:34:23.399Z,83.57
2022-12-03T15:36:51.575Z,83.06
2022-12-03T15:39:19.413Z,83.88
2022-12-03T15:41:47.893Z,86.23
2022-12-03T15:44:16.005Z,85.76
2022-12-03T15:46:43.863Z,86.25
2022-12-03T15:49:13.127Z,87.49
2022-12-03T15:51:40.836Z,87.26
2022-12-03T15:54:08.747Z,86.99
2022-12-03T15:56:38.801Z,86.98
2022-12-03T15:59:06.594Z,87.39
2022-12-03T16:01:34.460Z,87.70
2022-12-03T16:04:02.264Z,86.99
2022-12-03T16:06:31.487Z,85.81
2022-12-03T16:08:59.306Z,85.34
2022-12-03T16:11:27.140Z,85.27
2022-12-03T16:13:54.984Z,83.99
2022-12-03T16:16:22.848Z,84.47
2022-12-03T16:18:53.154Z,84.70
2022-12-03T16:21:26.740Z,84.17
2022-12-03T16:23:56.758Z,84.32
2022-12-03T16:26:24.637Z,83.71
2022-12-03T16:28:52.713Z,84.86
2022-12-03T16:31:20.696Z,84.51
2022-12-03T16:33:49.517Z,87.14
2022-12-03T16:36:17.739Z,86.47
2022-12-03T16:38:45.650Z,85.82
2022-12-03T16:41:14.790Z,84.88
2022-12-03T16:43:45.513Z,85.01
2022-12-03T16:46:26.002Z,84.44
2022-12-03T16:48:55.278Z,83.73
2022-12-03T16:51:23.444Z,83.57
2022-12-03T16:53:51.626Z,83.83
2022-12-03T16:56:21.277Z,84.71
2022-12-03T16:58:49.104Z,84.50
2022-12-03T17:01:16.880Z,85.67
2022-12-03T17:03:44.713Z,87.29
2022-12-03T17:06:12.467Z,85.81
2022-12-03T17:08:44.376Z,84.25
2022-12-03T17:11:15.289Z,86.29
2022-12-03T17:13:44.603Z,85.16
2022-12-03T17:16:12.954Z,84.70
2022-12-03T17:18:40.882Z,84.55
2022-12-03T17:21:08.652Z,85.43
2022-12-03T17:23:36.478Z,86.94
2022-12-03T17:26:04.345Z,88.31
2022-12-03T17:28:32.210Z,88.48
2022-12-03T17:31:01.776Z,88.21
2022-12-03T17:33:29.747Z,87.70
2022-12-03T17:35:59.635Z,86.38
2022-12-03T17:38:27.548Z,85.98
2022-12-03T17:40:55.359Z,85.34
2022-12-03T17:43:23.183Z,84.84
2022-12-03T17:45:50.982Z,84.51
2022-12-03T17:48:20.107Z,85.11
2022-12-03T17:50:50.168Z,84.55
2022-12-03T17:53:23.113Z,86.75
2022-12-03T17:55:53.304Z,87.51
2022-12-03T17:58:26.689Z,86.28
2022-12-03T18:01:00.270Z,85.95
2022-12-03T18:03:31.952Z,86.22
2022-12-03T18:05:59.924Z,85.08
2022-12-03T18:08:27.726Z,84.90
2022-12-03T18:10:55.497Z,87.60
2022-12-03T18:13:23.301Z,87.50
2022-12-03T18:15:51.081Z,85.78
2022-12-03T18:18:18.977Z,86.11
2022-12-03T18:20:48.222Z,84.54
2022-12-03T18:23:16.129Z,84.82
2022-12-03T18:25:43.991Z,86.21
2022-12-03T18:28:13.893Z,86.44
2022-12-03T18:30:42.206Z,84.92
2022-12-03T18:33:12.047Z,84.11
2022-12-03T18:35:40.103Z,84.43
2022-12-03T18:38:11.904Z,83.68
2022-12-03T18:40:39.858Z,85.82
2022-12-03T18:43:13.112Z,88.04
2022-12-03T18:45:46.074Z,89.07
2022-12-03T18:48:16.240Z,87.14
2022-12-03T18:50:44.687Z,87.33
2022-12-03T18:53:15.124Z,87.69
2022-12-03T18:55:44.214Z,86.10
2022-12-03T18:58:11.995Z,85.16
2022-12-03T19:00:40.557Z,86.01
2022-12-03T19:03:08.513Z,84.58
2022-12-03T19:05:36.825Z,85.81
2022-12-03T19:08:12.384Z,88.55
2022-12-03T19:10:42.194Z,85.27
2022-12-03T19:13:09.975Z,85.85
2022-12-03T19:15:38.387Z,84.85
2022-12-03T19:18:07.411Z,86.94
2022-12-03T19:20:35.594Z,87.52
2022-12-03T19:23:03.376Z,89.46
2022-12-03T19:25:31.227Z,87.84
2022-12-03T19:28:00.336Z,87.00
2022-12-03T19:30:28.233Z,87.50
2022-12-03T19:32:56.079Z,86.19
2022-12-03T19:35:23.958Z,85.27
2022-12-03T19:37:51.883Z,87.20
2022-12-03T19:40:19.797Z,85.30
2022-12-03T19:42:47.596Z,85.81
2022-12-03T19:45:16.851Z,87.45
2022-12-03T19:47:44.622Z,87.11
2022-12-03T19:50:19.289Z,85.09
2022-12-03T19:52:50.319Z,83.63
2022-12-03T19:55:19.695Z,84.54
2022-12-03T19:57:47.510Z,84.72
2022-12-03T20:00:18.705Z,84.99
2022-12-03T20:02:49.432Z,85.53
2022-12-03T20:05:17.362Z,86.66
2022-12-03T20:07:45.244Z,86.61
2022-12-03T20:10:13.084Z,85.73
2022-12-03T20:12:40.835Z,84.53
2022-12-03T20:15:09.231Z,84.35
2022-12-03T20:17:40.471Z,83.43
2022-12-03T20:20:09.739Z,83.17
2022-12-03T20:22:37.587Z,83.41
2022-12-03T20:25:06.110Z,85.45
2022-12-03T20:27:33.997Z,85.67
2022-12-03T20:30:01.834Z,84.66
2022-12-03T20:32:29.572Z,84.95
2022-12-03T20:34:59.542Z,84.92
2022-12-03T20:37:29.703Z,85.54
2022-12-03T20:39:57.762Z,85.48
2022-12-03T20:42:25.711Z,85.01
2022-12-03T20:44:53.809Z,85.63
2022-12-03T20:47:21.624Z,86.06
2022-12-03T20:49:49.501Z,85.21
2022-12-03T20:52:18.689Z,84.42
2022-12-03T20:54:46.741Z,86.89
2022-12-03T20:57:14.564Z,87.07
2022-12-03T20:59:42.335Z,86.26
2022-12-03T21:02:10.859Z,85.73
2022-12-03T21:04:41.071Z,86.61
2022-12-03T21:07:08.917Z,86.81
2022-12-03T21:09:38.202Z,87.08
2022-12-03T21:12:06.099Z,86.79
2022-12-03T21:14:33.951Z,85.37
2022-12-03T21:17:09.746Z,86.76
2022-12-03T21:19:40.434Z,87.47
2022-12-03T21:22:08.408Z,86.65
2022-12-03T21:24:36.381Z,85.71
2022-12-03T21:27:05.594Z,85.17
2022-12-03T21:29:33.360Z,86.41
2022-12-03T21:32:01.195Z,90.63
2022-12-03T21:34:34.366Z,89.91
2022-12-03T21:37:04.453Z,88.95
2022-12-03T21:39:36.681Z,89.70
2022-12-03T21:42:33.860Z,89.47
2022-12-03T21:44:53.830Z,88.23
2022-12-03T21:47:21.715Z,89.31
2022-12-03T21:49:49.545Z,89.37
2022-12-03T21:52:17.427Z,90.25
2022-12-03T21:54:45.454Z,89.12
2022-12-03T21:57:14.591Z,86.98
2022-12-03T21:59:42.384Z,88.04
2022-12-03T22:02:12.529Z,88.32
2022-12-03T22:04:40.889Z,87.79
2022-12-03T22:07:08.662Z,88.81
2022-12-03T22:09:36.601Z,88.07
2022-12-03T22:12:04.771Z,88.58
2022-12-03T22:14:36.104Z,89.67
2022-12-03T22:17:04.120Z,88.06
2022-12-03T22:19:32.091Z,87.86
2022-12-03T22:21:59.902Z,88.34
2022-12-03T22:24:27.783Z,87.86
2022-12-03T22:26:55.538Z,88.75
2022-12-03T22:29:23.443Z,90.12
2022-12-03T22:31:52.721Z,90.38
2022-12-03T22:34:20.627Z,90.54
2022-12-03T22:36:48.555Z,89.02
2022-12-03T22:39:16.341Z,89.89
2022-12-03T22:41:44.220Z,90.91
2022-12-03T22:44:12.136Z,89.54
2022-12-03T22:46:40.173Z,90.26
2022-12-03T22:49:09.377Z,89.71
2022-12-03T22:51:37.266Z,87.96
2022-12-03T22:54:05.536Z,88.50
2022-12-03T22:56:33.497Z,88.16
2022-12-03T22:59:01.236Z,87.57
2022-12-03T23:01:31.115Z,88.49
2022-12-03T23:03:59.214Z,88.41
2022-12-03T23:06:31.549Z,88.66
2022-12-03T23:08:59.989Z,90.32
2022-12-03T23:11:30.156Z,89.35
2022-12-03T23:13:58.925Z,90.45
2022-12-03T23:16:29.230Z,90.09
2022-12-03T23:18:59.619Z,89.35
2022-12-03T23:21:30.691Z,90.27
2022-12-03T23:24:00.998Z,90.25
2022-12-03T23:26:29.465Z,90.60
2022-12-03T23:28:57.517Z,90.37
2022-12-03T23:31:28.267Z,89.63
2022-12-03T23:33:57.221Z,90.06
2022-12-03T23:36:27.631Z,89.51
2022-12-03T23:38:55.675Z,88.20
2022-12-03T23:41:25.598Z,87.39
2022-12-03T23:43:54.055Z,86.58
2022-12-03T23:46:23.908Z,86.35
2022-12-03T23:48:52.220Z,85.06
2022-12-03T23:51:22.146Z,86.50
2022-12-03T23:53:53.866Z,88.30
2022-12-03T23:56:25.122Z,87.84
2022-12-03T23:58:53.108Z,88.89
